createdAt,value
2023-03-26T00:00:56.138Z,45
2023-03-26T00:01:57.357Z,45.4
2023-03-26T00:02:58.269Z,45.8
2023-03-26T00:03:59.273Z,46
2023-03-26T00:05:00.234Z,45.9
2023-03-26T00:06:01.227Z,45.7
2023-03-26T00:07:02.172Z,45.4
2023-03-26T00:08:03.136Z,45.3
2023-03-26T00:09:04.133Z,45.4
2023-03-26T00:10:05.173Z,45.4
2023-03-26T00:11:06.208Z,45.5
2023-03-26T00:12:07.234Z,45.2
2023-03-26T00:13:08.184Z,45.1
2023-03-26T00:14:09.161Z,45
2023-03-26T00:15:10.132Z,45
2023-03-26T00:16:11.206Z,45.1
2023-03-26T00:17:12.251Z,45
2023-03-26T00:18:13.159Z,44.9
2023-03-26T00:19:14.251Z,44.7
2023-03-26T00:20:15.174Z,44.6
2023-03-26T00:21:16.192Z,44.5
2023-03-26T00:22:17.116Z,44.4
2023-03-26T00:23:18.154Z,44.3
2023-03-26T00:24:19.177Z,44.3
2023-03-26T00:25:20.205Z,44.1
2023-03-26T00:26:21.157Z,44.1
2023-03-26T00:27:22.247Z,43.8
2023-03-26T00:28:23.235Z,43.7
2023-03-26T00:29:24.182Z,43.4
2023-03-26T00:30:25.139Z,43.2
2023-03-26T00:31:26.297Z,43.1
2023-03-26T00:32:27.295Z,43
2023-03-26T00:33:28.214Z,42.9
2023-03-26T00:34:29.175Z,42.2
2023-03-26T00:35:30.119Z,42.5
2023-03-26T00:36:31.261Z,42.7
2023-03-26T00:37:32.156Z,43
2023-03-26T00:38:33.157Z,42.9
2023-03-26T00:39:34.222Z,42.8
2023-03-26T00:40:35.217Z,42.7
2023-03-26T00:41:36.267Z,42.6
2023-03-26T00:42:37.207Z,42.4
2023-03-26T00:43:38.196Z,43
2023-03-26T00:44:39.236Z,43
2023-03-26T00:45:40.166Z,43.2
2023-03-26T00:46:41.341Z,43.2
2023-03-26T00:47:42.263Z,43.1
2023-03-26T00:48:45.337Z,43.4
2023-03-26T00:49:44.101Z,43.6
2023-03-26T00:50:45.199Z,44
2023-03-26T00:51:46.177Z,44.1
2023-03-26T00:52:47.148Z,44.4
2023-03-26T00:53:48.323Z,44.6
2023-03-26T00:54:49.198Z,44.8
2023-03-26T00:55:50.259Z,44.9
2023-03-26T00:56:51.294Z,45
2023-03-26T00:57:52.200Z,45.6
2023-03-26T00:58:53.363Z,46.2
2023-03-26T00:59:54.218Z,46.1
2023-03-26T01:00:55.168Z,46.5
2023-03-26T01:01:56.213Z,46.9
2023-03-26T01:02:57.307Z,47.1
2023-03-26T01:04:08.003Z,47.2
2023-03-26T01:04:59.407Z,47.2
2023-03-26T01:06:00.196Z,47.3
2023-03-26T01:07:01.190Z,47.4
2023-03-26T01:08:02.198Z,47.5
2023-03-26T01:09:03.291Z,47.4
2023-03-26T01:10:04.181Z,47.3
2023-03-26T01:11:05.166Z,47.1
2023-03-26T01:12:06.396Z,46.8
2023-03-26T01:13:07.158Z,46.8
2023-03-26T01:14:08.251Z,46.5
2023-03-26T01:15:09.261Z,46.5
2023-03-26T01:16:10.193Z,46.6
2023-03-26T01:17:11.336Z,46.5
2023-03-26T01:18:12.237Z,46.5
2023-03-26T01:19:13.242Z,46.7
2023-03-26T01:20:14.240Z,46.8
2023-03-26T01:21:15.184Z,46.7
2023-03-26T01:22:16.197Z,46.6
2023-03-26T01:23:17.276Z,46.8
2023-03-26T01:24:18.178Z,47
2023-03-26T01:25:19.237Z,47.1
2023-03-26T01:26:20.376Z,47.1
2023-03-26T01:27:21.226Z,47.1
2023-03-26T01:28:22.317Z,47.3
2023-03-26T01:29:23.181Z,47.6
2023-03-26T01:30:24.165Z,47.6
2023-03-26T01:31:25.202Z,47.3
2023-03-26T01:32:26.309Z,47.5
2023-03-26T01:33:27.326Z,47.9
2023-03-26T01:34:28.237Z,48.2
2023-03-26T01:35:29.268Z,48.2
2023-03-26T01:36:30.180Z,48.4
2023-03-26T01:37:31.297Z,48.3
2023-03-26T01:38:32.216Z,48.4
2023-03-26T01:39:33.259Z,48.1
2023-03-26T01:40:34.216Z,48.7
2023-03-26T01:41:35.258Z,48.8
2023-03-26T01:42:36.209Z,48.8
2023-03-26T01:43:37.238Z,48.9
2023-03-26T01:44:38.196Z,48.5
2023-03-26T01:45:39.239Z,48.8
2023-03-26T01:46:40.256Z,48.7
2023-03-26T01:47:41.265Z,48.7
2023-03-26T01:48:42.239Z,48.8
2023-03-26T01:49:43.188Z,48.8
2023-03-26T01:50:44.274Z,48.5
2023-03-26T01:51:45.275Z,48.3
2023-03-26T01:52:46.194Z,48
2023-03-26T01:53:47.175Z,48
2023-03-26T01:54:48.194Z,48
2023-03-26T01:55:49.208Z,48
2023-03-26T01:56:50.403Z,48.2
2023-03-26T01:57:51.261Z,48.4
2023-03-26T01:58:52.217Z,48.5
2023-03-26T01:59:53.258Z,48.4
2023-03-26T02:00:54.180Z,48.5
2023-03-26T02:01:55.290Z,48.3
2023-03-26T02:02:56.367Z,48.4
2023-03-26T02:03:57.300Z,48.2
2023-03-26T02:04:58.189Z,47.9
2023-03-26T02:05:59.239Z,47.9
2023-03-26T02:07:00.216Z,47.8
2023-03-26T02:08:01.241Z,47.8
2023-03-26T02:09:02.257Z,47.6
2023-03-26T02:10:03.197Z,47.8
2023-03-26T02:11:04.217Z,47.7
2023-03-26T02:12:05.197Z,47.7
2023-03-26T02:13:06.218Z,47.8
2023-03-26T02:14:07.275Z,47.8
2023-03-26T02:15:08.215Z,47.9
2023-03-26T02:16:09.257Z,47.8
2023-03-26T02:17:10.238Z,48
2023-03-26T02:18:11.234Z,48.1
2023-03-26T02:19:12.218Z,48.2
2023-03-26T02:20:13.240Z,48.1
2023-03-26T02:21:14.252Z,48.1
2023-03-26T02:22:15.254Z,48.2
2023-03-26T02:23:16.271Z,48.4
2023-03-26T02:24:17.279Z,48.3
2023-03-26T02:25:18.247Z,48.1
2023-03-26T02:26:19.306Z,48
2023-03-26T02:27:20.262Z,47.9
2023-03-26T02:28:21.320Z,47.8
2023-03-26T02:29:22.274Z,47.7
2023-03-26T02:30:23.254Z,47.8
2023-03-26T02:31:24.313Z,47.9
2023-03-26T02:32:26.758Z,48
2023-03-26T02:33:26.236Z,48
2023-03-26T02:34:27.234Z,48.2
2023-03-26T02:35:28.348Z,48.3
2023-03-26T02:36:29.363Z,48.6
2023-03-26T02:37:30.331Z,48.8
2023-03-26T02:38:31.244Z,49
2023-03-26T02:39:32.313Z,48.9
2023-03-26T02:40:33.317Z,48.8
2023-03-26T02:41:34.360Z,48.6
2023-03-26T02:42:35.197Z,48.6
2023-03-26T02:43:36.255Z,48.7
2023-03-26T02:44:37.322Z,48.4
2023-03-26T02:45:38.336Z,48.5
2023-03-26T02:46:39.332Z,48.6
2023-03-26T02:47:40.299Z,48.5
2023-03-26T02:48:41.323Z,48.4
2023-03-26T02:49:42.257Z,48.2
2023-03-26T02:50:43.451Z,48.4
2023-03-26T02:51:44.274Z,48.5
2023-03-26T02:52:45.252Z,48.9
2023-03-26T02:53:46.273Z,48.8
2023-03-26T02:54:47.275Z,48.6
2023-03-26T02:55:48.273Z,48.6
2023-03-26T02:56:49.290Z,48.4
2023-03-26T02:57:50.232Z,48.3
2023-03-26T02:58:51.286Z,48.1
2023-03-26T02:59:52.313Z,47.9
2023-03-26T03:00:53.357Z,47.5
2023-03-26T03:01:54.436Z,47.3
2023-03-26T03:02:55.434Z,47.2
2023-03-26T03:03:56.280Z,46.8
2023-03-26T03:04:57.460Z,46.7
2023-03-26T03:05:58.382Z,46.6
2023-03-26T03:06:59.372Z,46.5
2023-03-26T03:08:00.251Z,46.5
2023-03-26T03:09:01.290Z,45.3
2023-03-26T03:10:02.302Z,45.8
2023-03-26T03:11:03.213Z,46.1
2023-03-26T03:12:04.296Z,46.1
2023-03-26T03:13:05.279Z,46
2023-03-26T03:14:06.309Z,46.1
2023-03-26T03:15:07.258Z,45.8
2023-03-26T03:16:08.201Z,46
2023-03-26T03:17:09.318Z,45.9
2023-03-26T03:18:10.269Z,45.7
2023-03-26T03:19:11.314Z,45.7
2023-03-26T03:20:12.291Z,45.6
2023-03-26T03:21:13.272Z,45.6
2023-03-26T03:22:14.294Z,45.5
2023-03-26T03:23:15.233Z,45.4
2023-03-26T03:24:16.214Z,45.2
2023-03-26T03:25:17.258Z,45.1
2023-03-26T03:26:18.355Z,44.8
2023-03-26T03:27:19.275Z,44.8
2023-03-26T03:28:20.278Z,44.9
2023-03-26T03:29:21.393Z,45
2023-03-26T03:30:22.312Z,44.9
2023-03-26T03:31:23.369Z,44.7
2023-03-26T03:32:24.415Z,44.4
2023-03-26T03:33:25.297Z,44
2023-03-26T03:34:26.323Z,44
2023-03-26T03:35:27.244Z,43.8
2023-03-26T03:36:28.295Z,44.7
2023-03-26T03:37:29.366Z,45.1
2023-03-26T03:38:30.396Z,45.3
2023-03-26T03:39:31.401Z,45.1
2023-03-26T03:40:32.305Z,44.8
2023-03-26T03:41:33.303Z,44.4
2023-03-26T03:42:34.321Z,44.3
2023-03-26T03:43:35.226Z,44.2
2023-03-26T03:44:36.311Z,43.9
2023-03-26T03:45:37.329Z,44.2
2023-03-26T03:46:38.398Z,44.9
2023-03-26T03:47:39.350Z,45.6
2023-03-26T03:48:40.575Z,46
2023-03-26T03:49:41.334Z,45.9
2023-03-26T03:50:42.323Z,45.6
2023-03-26T03:51:43.308Z,45.5
2023-03-26T03:52:44.299Z,45.5
2023-03-26T03:53:45.225Z,45.4
2023-03-26T03:54:46.301Z,45.2
2023-03-26T03:55:47.276Z,45.1
2023-03-26T03:56:48.370Z,45.1
2023-03-26T03:57:49.444Z,45.2
2023-03-26T03:58:50.386Z,45.4
2023-03-26T03:59:51.342Z,45.3
2023-03-26T04:00:52.368Z,45.5
2023-03-26T04:01:53.423Z,45.8
2023-03-26T04:02:54.449Z,45.9
2023-03-26T04:03:55.414Z,45.8
2023-03-26T04:04:56.289Z,45.9
2023-03-26T04:05:57.276Z,45.9
2023-03-26T04:06:58.286Z,45.8
2023-03-26T04:07:59.355Z,45.9
2023-03-26T04:09:00.365Z,45.3
2023-03-26T04:10:01.256Z,45.6
2023-03-26T04:11:02.304Z,45.6
2023-03-26T04:12:03.259Z,45.8
2023-03-26T04:13:04.490Z,45.6
2023-03-26T04:14:05.334Z,45.4
2023-03-26T04:15:06.281Z,44.8
2023-03-26T04:16:07.326Z,45.4
2023-03-26T04:17:08.315Z,45.7
2023-03-26T04:18:09.507Z,45.7
2023-03-26T04:19:10.505Z,45.8
2023-03-26T04:20:11.330Z,45.7
2023-03-26T04:21:12.315Z,45.6
2023-03-26T04:22:13.316Z,45.6
2023-03-26T04:23:14.300Z,45.4
2023-03-26T04:24:15.260Z,45.1
2023-03-26T04:25:16.313Z,44.8
2023-03-26T04:26:17.299Z,44.4
2023-03-26T04:27:18.315Z,44.3
2023-03-26T04:28:19.259Z,44.1
2023-03-26T04:29:20.324Z,44.4
2023-03-26T04:30:21.322Z,44.6
2023-03-26T04:31:22.329Z,44.5
2023-03-26T04:32:23.478Z,44.7
2023-03-26T04:33:24.315Z,44.6
2023-03-26T04:34:25.361Z,44.5
2023-03-26T04:35:26.405Z,44.4
2023-03-26T04:36:27.301Z,44.7
2023-03-26T04:37:28.356Z,44.8
2023-03-26T04:38:29.306Z,44.9
2023-03-26T04:39:30.297Z,45
2023-03-26T04:40:31.378Z,44.8
2023-03-26T04:41:32.362Z,44.7
2023-03-26T04:42:33.361Z,44.7
2023-03-26T04:43:34.396Z,44.8
2023-03-26T04:44:35.453Z,44.8
2023-03-26T04:45:36.471Z,44.9
2023-03-26T04:46:37.346Z,45
2023-03-26T04:47:38.406Z,45.4
2023-03-26T04:48:39.441Z,45.7
2023-03-26T04:49:40.276Z,45.9
2023-03-26T04:50:41.276Z,46.2
2023-03-26T04:51:42.291Z,46.4
2023-03-26T04:52:45.239Z,46.3
2023-03-26T04:53:44.403Z,46.6
2023-03-26T04:54:45.324Z,46.9
2023-03-26T04:55:46.273Z,47
2023-03-26T04:56:47.305Z,47.4
2023-03-26T04:57:48.258Z,47.6
2023-03-26T04:58:49.341Z,47.7
2023-03-26T04:59:50.324Z,47.7
2023-03-26T05:00:51.381Z,47.8
2023-03-26T05:01:52.337Z,48.1
2023-03-26T05:02:53.396Z,48.2
2023-03-26T05:03:54.330Z,48.3
2023-03-26T05:04:55.313Z,48.4
2023-03-26T05:05:56.454Z,48.4
2023-03-26T05:06:57.354Z,48.2
2023-03-26T05:07:58.518Z,48
2023-03-26T05:08:59.382Z,48.1
2023-03-26T05:10:00.314Z,48.2
2023-03-26T05:11:01.414Z,48.6
2023-03-26T05:12:02.315Z,48.7
2023-03-26T05:13:03.294Z,48.9
2023-03-26T05:14:04.406Z,48.8
2023-03-26T05:15:05.379Z,48.9
2023-03-26T05:16:06.300Z,48.9
2023-03-26T05:17:07.273Z,48.8
2023-03-26T05:18:08.394Z,48.7
2023-03-26T05:19:09.360Z,48.6
2023-03-26T05:20:10.379Z,48.8
2023-03-26T05:21:11.382Z,48.7
2023-03-26T05:22:12.294Z,48.7
2023-03-26T05:23:13.355Z,48.9
2023-03-26T05:24:14.522Z,48.9
2023-03-26T05:25:15.473Z,48.7
2023-03-26T05:26:16.371Z,48.8
2023-03-26T05:27:17.335Z,48.6
2023-03-26T05:28:18.332Z,48.6
2023-03-26T05:29:19.321Z,48.5
2023-03-26T05:30:20.400Z,48.4
2023-03-26T05:31:21.407Z,48.5
2023-03-26T05:32:22.395Z,48.6
2023-03-26T05:33:23.383Z,48.6
2023-03-26T05:34:24.491Z,48.6
2023-03-26T05:35:25.382Z,48.8
2023-03-26T05:36:26.391Z,48.9
2023-03-26T05:37:27.436Z,49
2023-03-26T05:38:28.272Z,49.1
2023-03-26T05:39:29.285Z,49.4
2023-03-26T05:40:30.379Z,49.4
2023-03-26T05:41:31.335Z,49.4
2023-03-26T05:42:32.393Z,49.2
2023-03-26T05:43:33.413Z,49.1
2023-03-26T05:44:34.395Z,48.9
2023-03-26T05:45:35.374Z,48.8
2023-03-26T05:46:36.432Z,48.8
2023-03-26T05:47:37.337Z,48.8
2023-03-26T05:48:38.368Z,49
2023-03-26T05:49:39.295Z,49
2023-03-26T05:50:40.326Z,49.1
2023-03-26T05:51:41.414Z,49.1
2023-03-26T05:52:42.335Z,48.9
2023-03-26T05:53:43.442Z,49.1
2023-03-26T05:54:44.553Z,49.2
2023-03-26T05:55:45.433Z,49.1
2023-03-26T05:56:46.399Z,48.2
2023-03-26T05:57:47.396Z,48.3
2023-03-26T05:58:49.015Z,48.7
2023-03-26T05:59:49.410Z,48.9
2023-03-26T06:00:50.325Z,48.8
2023-03-26T06:01:51.504Z,49
2023-03-26T06:02:52.562Z,48.9
2023-03-26T06:03:53.770Z,49
2023-03-26T06:04:54.519Z,49
2023-03-26T06:05:55.414Z,49.2
2023-03-26T06:06:56.412Z,49.2
2023-03-26T06:07:57.426Z,49.3
2023-03-26T06:09:01.301Z,49.1
2023-03-26T06:09:59.352Z,49.2
2023-03-26T06:11:00.395Z,49.4
2023-03-26T06:12:01.372Z,49.4
2023-03-26T06:13:02.400Z,49.3
2023-03-26T06:14:03.363Z,49.2
2023-03-26T06:15:04.331Z,48.7
2023-03-26T06:16:05.379Z,48.5
2023-03-26T06:17:06.402Z,48.5
2023-03-26T06:18:07.417Z,48.6
2023-03-26T06:19:08.407Z,48.7
2023-03-26T06:20:09.692Z,48.2
2023-03-26T06:21:10.340Z,48.6
2023-03-26T06:22:11.394Z,49.1
2023-03-26T06:23:12.431Z,49.3
2023-03-26T06:24:13.373Z,49.3
2023-03-26T06:25:14.404Z,49.3
2023-03-26T06:26:15.392Z,49.3
2023-03-26T06:27:16.376Z,49.2
2023-03-26T06:28:17.382Z,48.7
2023-03-26T06:29:18.404Z,49
2023-03-26T06:30:19.579Z,49
2023-03-26T06:31:20.402Z,48.7
2023-03-26T06:32:21.254Z,49
2023-03-26T06:33:24.470Z,49.1
2023-03-26T06:34:23.428Z,49.1
2023-03-26T06:35:24.398Z,49
2023-03-26T06:36:25.358Z,49
2023-03-26T06:37:26.450Z,49
2023-03-26T06:38:27.269Z,48.8
2023-03-26T06:39:28.353Z,49
2023-03-26T06:40:29.539Z,49.2
2023-03-26T06:41:30.354Z,49.5
2023-03-26T06:42:32.104Z,49.1
2023-03-26T06:43:32.336Z,48.8
2023-03-26T06:44:33.445Z,48.7
2023-03-26T06:45:34.440Z,48.2
2023-03-26T06:46:35.370Z,47.9
2023-03-26T06:47:36.266Z,47.5
2023-03-26T06:48:37.417Z,47.2
2023-03-26T06:49:38.367Z,47
2023-03-26T06:50:39.419Z,47.3
2023-03-26T06:51:40.395Z,47.1
2023-03-26T06:52:41.427Z,47.1
2023-03-26T06:53:42.396Z,46.5
2023-03-26T06:54:43.386Z,46.7
2023-03-26T06:55:44.543Z,46.6
2023-03-26T06:56:45.517Z,46.4
2023-03-26T06:57:46.356Z,46.4
2023-03-26T06:58:47.382Z,46.4
2023-03-26T06:59:48.458Z,46.8
2023-03-26T07:00:49.331Z,46.7
2023-03-26T07:01:50.335Z,46.8
2023-03-26T07:02:51.395Z,46.1
2023-03-26T07:03:52.389Z,46.7
2023-03-26T07:04:53.883Z,46.4
2023-03-26T07:05:55.353Z,46.8
2023-03-26T07:06:56.455Z,46.6
2023-03-26T07:07:57.507Z,46.3
2023-03-26T07:08:58.530Z,46.4
2023-03-26T07:09:59.619Z,46.3
2023-03-26T07:11:00.485Z,46.5
2023-03-26T07:12:01.426Z,47
2023-03-26T07:13:02.404Z,47.1
2023-03-26T07:14:03.358Z,46.9
2023-03-26T07:15:04.377Z,47.2
2023-03-26T07:16:05.463Z,47
2023-03-26T07:17:06.333Z,47
2023-03-26T07:18:07.601Z,46.6
2023-03-26T07:19:08.532Z,46.7
2023-03-26T07:20:09.446Z,47
2023-03-26T07:21:10.521Z,47.5
2023-03-26T07:22:11.377Z,47.9
2023-03-26T07:23:12.326Z,48.2
2023-03-26T07:24:13.715Z,47.6
2023-03-26T07:25:14.438Z,47.3
2023-03-26T07:26:15.357Z,47.4
2023-03-26T07:27:16.493Z,47.1
2023-03-26T07:28:17.391Z,47.4
2023-03-26T07:29:18.659Z,47.6
2023-03-26T07:30:19.531Z,47.9
2023-03-26T07:31:20.547Z,48
2023-03-26T07:32:21.619Z,48
2023-03-26T07:33:22.885Z,48
2023-03-26T07:34:24.651Z,47.9
2023-03-26T07:35:25.573Z,47.6
2023-03-26T07:36:26.580Z,47.5
2023-03-26T07:37:27.443Z,47.8
2023-03-26T07:38:28.429Z,47.9
2023-03-26T07:39:29.317Z,48.2
2023-03-26T07:40:30.406Z,48.2
2023-03-26T07:41:31.576Z,48.1
2023-03-26T07:42:32.592Z,47.6
2023-03-26T07:43:33.371Z,47.7
2023-03-26T07:44:35.793Z,47.9
2023-03-26T07:45:35.401Z,47.8
2023-03-26T07:46:36.358Z,47.1
2023-03-26T07:47:37.392Z,46.8
2023-03-26T07:48:38.396Z,46.5
2023-03-26T07:49:39.409Z,46.8
2023-03-26T07:50:40.678Z,46.3
2023-03-26T07:51:41.446Z,46.1
2023-03-26T07:52:42.595Z,46.6
2023-03-26T07:53:43.384Z,46.4
2023-03-26T07:54:44.396Z,46.2
2023-03-26T07:55:45.435Z,46.4
2023-03-26T07:56:46.642Z,45.8
2023-03-26T07:57:47.461Z,46.1
2023-03-26T07:58:48.470Z,45.9
2023-03-26T07:59:49.465Z,45.5
2023-03-26T08:00:50.702Z,45.5
2023-03-26T08:01:51.535Z,45.9
2023-03-26T08:02:52.688Z,45.5
2023-03-26T08:03:55.965Z,45.6
2023-03-26T08:04:57.573Z,45.7
2023-03-26T08:05:58.461Z,45.6
2023-03-26T08:06:59.378Z,45.8
2023-03-26T08:08:00.488Z,45.9
2023-03-26T08:09:01.555Z,46
2023-03-26T08:10:02.547Z,46.4
2023-03-26T08:11:03.642Z,46.6
2023-03-26T08:12:04.474Z,48
2023-03-26T08:13:05.503Z,48.4
2023-03-26T08:14:06.456Z,48.6
2023-03-26T08:15:07.612Z,48.7
2023-03-26T08:16:08.506Z,48.6
2023-03-26T08:17:09.322Z,48.6
2023-03-26T08:18:10.428Z,48.6
2023-03-26T08:19:11.408Z,49.3
2023-03-26T08:20:12.426Z,49.6
2023-03-26T08:21:13.472Z,49.2
2023-03-26T08:22:14.377Z,48.8
2023-03-26T08:23:15.454Z,48.9
2023-03-26T08:24:16.546Z,48.9
2023-03-26T08:25:17.466Z,48.3
2023-03-26T08:26:18.554Z,48.3
2023-03-26T08:27:19.385Z,48.5
2023-03-26T08:28:20.889Z,48.5
2023-03-26T08:29:22.575Z,47.7
2023-03-26T08:30:23.595Z,47.3
2023-03-26T08:31:24.697Z,47.8
2023-03-26T08:32:25.611Z,47.6
2023-03-26T08:33:26.532Z,47.3
2023-03-26T08:34:27.446Z,46.9
2023-03-26T08:35:28.421Z,47.3
2023-03-26T08:36:29.394Z,46.7
2023-03-26T08:37:30.470Z,46.7
2023-03-26T08:38:31.574Z,46.9
2023-03-26T08:39:32.688Z,47
2023-03-26T08:40:33.593Z,47
2023-03-26T08:41:34.497Z,47.5
2023-03-26T08:42:35.636Z,47.5
2023-03-26T08:43:36.639Z,47.9
2023-03-26T08:44:37.566Z,47.6
2023-03-26T08:45:38.512Z,47.1
2023-03-26T08:46:39.450Z,47.9
2023-03-26T08:47:40.467Z,47.2
2023-03-26T08:48:41.371Z,46.8
2023-03-26T08:49:42.416Z,46.6
2023-03-26T08:50:43.394Z,45.8
2023-03-26T08:51:44.415Z,46.6
2023-03-26T08:52:45.813Z,46
2023-03-26T08:53:46.455Z,45.6
2023-03-26T08:54:47.420Z,45.2
2023-03-26T08:55:48.439Z,45.6
2023-03-26T08:56:49.560Z,45.7
2023-03-26T08:57:50.395Z,45.7
2023-03-26T08:58:51.431Z,45.3
2023-03-26T08:59:52.618Z,44.9
2023-03-26T09:00:53.677Z,45
2023-03-26T09:01:54.547Z,45.3
2023-03-26T09:02:55.580Z,43.9
2023-03-26T09:03:56.515Z,44.1
2023-03-26T09:04:57.484Z,43.9
2023-03-26T09:05:58.416Z,43.9
2023-03-26T09:06:59.438Z,43.7
2023-03-26T09:08:00.422Z,42.8
2023-03-26T09:09:01.438Z,42.2
2023-03-26T09:10:02.914Z,41.8
2023-03-26T09:11:04.644Z,43.2
2023-03-26T09:12:05.614Z,43.7
2023-03-26T09:13:06.496Z,43.8
2023-03-26T09:14:07.623Z,43.8
2023-03-26T09:15:08.510Z,43.4
2023-03-26T09:16:09.434Z,43.7
2023-03-26T09:17:10.454Z,44.4
2023-03-26T09:18:11.596Z,45.8
2023-03-26T09:19:12.522Z,47.5
2023-03-26T09:20:13.650Z,49.9
2023-03-26T09:21:14.509Z,52.1
2023-03-26T09:22:15.401Z,53.5
2023-03-26T09:23:16.492Z,54.7
2023-03-26T09:24:17.598Z,55.1
2023-03-26T09:25:18.599Z,55.5
2023-03-26T09:26:19.499Z,55.3
2023-03-26T09:27:23.096Z,55.3
2023-03-26T09:28:24.538Z,55.6
2023-03-26T09:29:25.469Z,56
2023-03-26T09:30:26.518Z,56.1
2023-03-26T09:31:27.686Z,56.3
2023-03-26T09:32:28.500Z,56.4
2023-03-26T09:33:29.527Z,56.1
2023-03-26T09:34:30.472Z,56.2
2023-03-26T09:35:31.598Z,56.2
2023-03-26T09:36:32.554Z,56.4
2023-03-26T09:37:33.542Z,56.3
2023-03-26T09:38:34.366Z,56.8
2023-03-26T09:39:35.545Z,57.2
2023-03-26T09:40:36.554Z,58
2023-03-26T09:41:37.640Z,58.6
2023-03-26T09:42:38.475Z,57.8
2023-03-26T09:43:39.580Z,57.5
2023-03-26T09:44:40.477Z,57.3
2023-03-26T09:45:41.596Z,57.2
2023-03-26T09:46:42.755Z,56.3
2023-03-26T09:47:43.718Z,55.7
2023-03-26T09:48:44.409Z,56.4
2023-03-26T09:49:45.482Z,56.9
2023-03-26T09:50:46.446Z,56.8
2023-03-26T09:51:47.427Z,56.5
2023-03-26T09:52:48.506Z,56.3
2023-03-26T09:53:49.478Z,56.1
2023-03-26T09:54:50.460Z,55.7
2023-03-26T09:55:51.384Z,55.5
2023-03-26T09:56:52.559Z,55.3
2023-03-26T09:57:53.460Z,55.4
2023-03-26T09:58:54.440Z,56
2023-03-26T09:59:55.479Z,57
2023-03-26T10:00:56.791Z,57.4
2023-03-26T10:01:57.466Z,56.3
2023-03-26T10:02:58.659Z,56.5
2023-03-26T10:03:59.442Z,55.6
2023-03-26T10:05:00.415Z,55.6
2023-03-26T10:06:01.504Z,55.3
2023-03-26T10:07:02.978Z,54.5
2023-03-26T10:08:04.676Z,55.4
2023-03-26T10:09:05.549Z,55.9
2023-03-26T10:10:06.441Z,56
2023-03-26T10:11:07.735Z,55.6
2023-03-26T10:12:08.597Z,55.8
2023-03-26T10:13:14.708Z,55.5
2023-03-26T10:14:10.455Z,55.2
2023-03-26T10:15:11.478Z,54.4
2023-03-26T10:16:13.186Z,53.5
2023-03-26T10:17:14.546Z,53.1
2023-03-26T10:18:26.559Z,52
2023-03-26T10:19:16.491Z,51.7
2023-03-26T10:20:17.504Z,50.9
2023-03-26T10:21:18.603Z,50.5
2023-03-26T10:22:19.601Z,49.6
2023-03-26T10:23:20.446Z,49.9
2023-03-26T10:24:21.440Z,49.4
2023-03-26T10:25:22.535Z,49.3
2023-03-26T10:26:23.599Z,49.1
2023-03-26T10:27:24.840Z,49.3
2023-03-26T10:28:25.406Z,48.9
2023-03-26T10:29:26.548Z,49.2
2023-03-26T10:30:27.692Z,47
2023-03-26T10:31:28.668Z,43.3
2023-03-26T10:32:29.677Z,42.9
2023-03-26T10:33:30.505Z,41.2
2023-03-26T10:34:31.394Z,40.7
2023-03-26T10:35:32.678Z,41.2
2023-03-26T10:36:33.736Z,40.7
2023-03-26T10:37:34.521Z,41.5
2023-03-26T10:38:35.458Z,42.4
2023-03-26T10:39:38.867Z,42.5
2023-03-26T10:40:37.675Z,42
2023-03-26T10:41:38.592Z,40.6
2023-03-26T10:42:39.618Z,40.6
2023-03-26T10:43:40.760Z,40.7
2023-03-26T10:44:41.597Z,39.8
2023-03-26T10:45:42.444Z,39.6
2023-03-26T10:46:43.420Z,40.2
2023-03-26T10:47:44.657Z,40.1
2023-03-26T10:48:45.555Z,41.7
2023-03-26T10:49:46.445Z,43.3
2023-03-26T10:50:47.539Z,43.6
2023-03-26T10:51:48.741Z,43.3
2023-03-26T10:52:49.659Z,44.7
2023-03-26T10:53:50.559Z,46.8
2023-03-26T10:54:51.573Z,48.5
2023-03-26T10:55:52.752Z,50.1
2023-03-26T10:56:53.658Z,50.6
2023-03-26T10:57:54.679Z,51.1
2023-03-26T10:58:55.450Z,50.8
2023-03-26T10:59:56.656Z,51.2
2023-03-26T11:00:57.613Z,51.9
2023-03-26T11:01:58.744Z,52.4
2023-03-26T11:02:59.574Z,53.5
2023-03-26T11:04:00.768Z,53.2
2023-03-26T11:05:01.494Z,53.6
2023-03-26T11:06:02.604Z,53.3
2023-03-26T11:07:05.007Z,51.7
2023-03-26T11:08:04.668Z,50.6
2023-03-26T11:09:05.683Z,48.1
2023-03-26T11:10:06.868Z,45.7
2023-03-26T11:11:07.640Z,45.5
2023-03-26T11:12:26.005Z,46.5
2023-03-26T11:13:09.580Z,46.3
2023-03-26T11:14:10.937Z,46.5
2023-03-26T11:15:12.693Z,47
2023-03-26T11:16:13.686Z,45.9
2023-03-26T11:17:14.983Z,44.6
2023-03-26T11:18:15.767Z,44.8
2023-03-26T11:19:16.615Z,44.8
2023-03-26T11:20:17.626Z,44.2
2023-03-26T11:21:20.564Z,43.5
2023-03-26T11:22:19.585Z,44.5
2023-03-26T11:23:20.575Z,43.8
2023-03-26T11:24:21.528Z,42.7
2023-03-26T11:25:23.069Z,43.4
2023-03-26T11:26:24.799Z,42.9
2023-03-26T11:27:26.502Z,43.7
2023-03-26T11:28:26.468Z,44
2023-03-26T11:29:32.044Z,43.2
2023-03-26T11:30:28.734Z,43.2
2023-03-26T11:31:29.534Z,42.4
2023-03-26T11:32:30.547Z,40.5
2023-03-26T11:33:32.541Z,40.6
2023-03-26T11:34:32.868Z,41.3
2023-03-26T11:35:39.327Z,41.4
2023-03-26T11:36:35.580Z,40.8
2023-03-26T11:37:36.453Z,40.2
2023-03-26T11:38:37.786Z,40.6
2023-03-26T11:39:38.616Z,40.9
2023-03-26T11:40:39.659Z,40
2023-03-26T11:41:40.746Z,41.2
2023-03-26T11:42:41.593Z,41.6
2023-03-26T11:43:42.692Z,41.7
2023-03-26T11:44:43.777Z,41.9
2023-03-26T11:45:44.631Z,42.4
2023-03-26T11:46:45.600Z,42.3
2023-03-26T11:47:46.647Z,42.2
2023-03-26T11:48:47.563Z,42.9
2023-03-26T11:49:48.475Z,42.5
2023-03-26T11:50:49.640Z,42.3
2023-03-26T11:51:50.653Z,43.2
2023-03-26T11:52:51.641Z,43.2
2023-03-26T11:53:52.571Z,42.9
2023-03-26T11:54:53.721Z,42.1
2023-03-26T11:55:54.750Z,41.3
2023-03-26T11:57:04.250Z,42.1
2023-03-26T11:57:56.636Z,43.2
2023-03-26T11:58:57.659Z,42.3
2023-03-26T11:59:58.467Z,40.9
2023-03-26T12:00:59.528Z,41.6
2023-03-26T12:02:00.473Z,41.4
2023-03-26T12:03:01.538Z,41.5
2023-03-26T12:04:02.860Z,41.9
2023-03-26T12:05:04.031Z,41.8
2023-03-26T12:06:05.728Z,42.1
2023-03-26T12:07:06.480Z,42.3
2023-03-26T12:08:07.502Z,42.4
2023-03-26T12:09:08.545Z,42.5
2023-03-26T12:10:15.398Z,42.9
2023-03-26T12:11:10.701Z,43
2023-03-26T12:12:11.770Z,42.3
2023-03-26T12:13:12.644Z,41.6
2023-03-26T12:14:13.568Z,41
2023-03-26T12:15:14.510Z,40.3
2023-03-26T12:16:15.659Z,40.3
2023-03-26T12:17:16.733Z,40
2023-03-26T12:18:17.536Z,40.1
2023-03-26T12:19:18.498Z,40.6
2023-03-26T12:20:19.674Z,39.4
2023-03-26T12:21:20.664Z,40
2023-03-26T12:22:21.632Z,40.4
2023-03-26T12:23:22.798Z,40.5
2023-03-26T12:24:23.643Z,38.9
2023-03-26T12:25:24.650Z,38.8
2023-03-26T12:26:25.441Z,38.6
2023-03-26T12:27:26.493Z,38.5
2023-03-26T12:28:27.622Z,39.2
2023-03-26T12:29:28.555Z,39.5
2023-03-26T12:30:29.643Z,39.7
2023-03-26T12:31:30.750Z,39
2023-03-26T12:32:43.111Z,38.8
2023-03-26T12:33:32.745Z,37.4
2023-03-26T12:34:33.562Z,37.2
2023-03-26T12:35:34.602Z,36.9
2023-03-26T12:36:35.580Z,37
2023-03-26T12:37:36.653Z,36.6
2023-03-26T12:38:37.503Z,36.9
2023-03-26T12:40:08.231Z,36.9
2023-03-26T12:40:39.610Z,35.9
2023-03-26T12:42:26.032Z,34.7
2023-03-26T12:44:45.546Z,34.7
2023-03-26T12:44:45.665Z,34.5
2023-03-26T12:44:58.481Z,34.9
2023-03-26T12:45:45.565Z,33.8
2023-03-26T12:47:55.945Z,33.7
2023-03-26T12:47:56.713Z,33.9
2023-03-26T12:48:48.586Z,33.9
2023-03-26T12:49:49.716Z,34.2
2023-03-26T12:50:50.896Z,34.2
2023-03-26T12:51:51.816Z,34.3
2023-03-26T12:52:52.733Z,33.9
2023-03-26T12:53:53.589Z,32.9
2023-03-26T12:54:54.636Z,34.2
2023-03-26T12:55:55.674Z,34.3
2023-03-26T12:57:11.585Z,34.9
2023-03-26T12:57:57.630Z,35.2
2023-03-26T12:58:58.780Z,32.9
2023-03-26T12:59:59.635Z,33.5
2023-03-26T13:01:00.661Z,32.2
2023-03-26T13:02:01.774Z,33
2023-03-26T13:03:03.666Z,33
2023-03-26T13:04:04.720Z,33.2
2023-03-26T13:05:06.935Z,33.1
2023-03-26T13:06:06.801Z,32.4
2023-03-26T13:07:07.618Z,31.9
2023-03-26T13:08:08.601Z,31.4
2023-03-26T13:09:09.738Z,31.8
2023-03-26T13:10:10.752Z,31.6
2023-03-26T13:11:11.757Z,31.9
2023-03-26T13:12:12.804Z,32.2
2023-03-26T13:13:13.680Z,31.9
2023-03-26T13:14:14.677Z,32.1
2023-03-26T13:15:15.757Z,32.4
2023-03-26T13:16:16.560Z,32.8
2023-03-26T13:17:17.624Z,32.5
2023-03-26T13:18:18.600Z,31.8
2023-03-26T13:19:19.697Z,31.7
2023-03-26T13:20:20.787Z,31.8
2023-03-26T13:21:21.820Z,31.5
2023-03-26T13:22:22.799Z,31.5
2023-03-26T13:23:23.759Z,31.2
2023-03-26T13:24:24.685Z,30.8
2023-03-26T13:25:25.721Z,31.1
2023-03-26T13:26:27.174Z,31.6
2023-03-26T13:27:28.799Z,31.8
2023-03-26T13:28:29.681Z,31.3
2023-03-26T13:29:30.703Z,31.8
2023-03-26T13:30:31.656Z,31.9
2023-03-26T13:31:32.639Z,32.3
2023-03-26T13:32:33.650Z,32.7
2023-03-26T13:33:34.619Z,32.7
2023-03-26T13:34:35.756Z,31.7
2023-03-26T13:35:36.853Z,32.5
2023-03-26T13:36:37.881Z,32.9
2023-03-26T13:37:38.703Z,31.6